createdAt,value
2023-04-14T00:00:45.027Z,6.70
2023-04-14T00:03:12.800Z,6.80
2023-04-14T00:05:40.654Z,6.80
2023-04-14T00:08:08.188Z,6.80
2023-04-14T00:10:35.739Z,6.70
2023-04-14T00:13:03.241Z,6.70
2023-04-14T00:15:30.935Z,6.60
2023-04-14T00:17:58.514Z,6.50
2023-04-14T00:20:26.057Z,6.60
2023-04-14T00:22:53.522Z,6.50
2023-04-14T00:25:21.006Z,6.50
2023-04-14T00:27:48.530Z,6.60
2023-04-14T00:30:16.083Z,6.60
2023-04-14T00:32:43.660Z,6.60
2023-04-14T00:35:11.188Z,6.60
2023-04-14T00:37:38.754Z,6.70
2023-04-14T00:40:10.060Z,6.60
2023-04-14T00:42:47.980Z,6.60
2023-04-14T00:45:15.690Z,6.70
2023-04-14T00:47:47.503Z,6.60
2023-04-14T00:50:16.521Z,6.60
2023-04-14T00:52:45.959Z,6.50
2023-04-14T00:55:18.551Z,6.50
2023-04-14T00:57:47.007Z,6.60
2023-04-14T01:00:15.884Z,6.70
2023-04-14T01:02:43.687Z,6.80
2023-04-14T01:05:11.961Z,6.80
2023-04-14T01:07:39.846Z,6.80
2023-04-14T01:10:08.266Z,6.90
2023-04-14T01:13:06.035Z,6.90
2023-04-14T01:15:52.968Z,6.90
2023-04-14T01:18:41.370Z,6.90
2023-04-14T01:21:20.616Z,6.90
2023-04-14T01:24:26.860Z,6.80
2023-04-14T01:27:24.112Z,6.80
2023-04-14T01:30:20.054Z,6.80
2023-04-14T01:32:50.191Z,6.80
2023-04-14T01:35:49.945Z,6.80
2023-04-14T01:38:26.220Z,6.80
2023-04-14T01:40:59.289Z,6.80
2023-04-14T01:43:29.565Z,6.80
2023-04-14T01:46:07.864Z,6.80
2023-04-14T01:48:36.513Z,6.80
2023-04-14T01:51:06.548Z,6.80
2023-04-14T01:53:38.808Z,6.80
2023-04-14T01:56:10.364Z,6.80
2023-04-14T01:58:39.282Z,6.80
2023-04-14T02:01:08.111Z,6.80
2023-04-14T02:03:37.614Z,6.80
2023-04-14T02:06:06.608Z,6.70
2023-04-14T02:08:37.757Z,6.80
2023-04-14T02:11:06.605Z,6.70
2023-04-14T02:13:36.017Z,6.80
2023-04-14T02:16:05.373Z,6.80
2023-04-14T02:18:33.622Z,6.70
2023-04-14T02:21:04.132Z,6.70
2023-04-14T02:23:33.275Z,6.80
2023-04-14T02:26:16.393Z,6.80
2023-04-14T02:28:59.951Z,6.80
2023-04-14T02:31:30.602Z,6.70
2023-04-14T02:34:01.205Z,6.70
2023-04-14T02:36:35.248Z,6.70
2023-04-14T02:39:12.297Z,6.70
2023-04-14T02:41:42.570Z,6.60
2023-04-14T02:44:29.728Z,6.70
2023-04-14T02:47:10.697Z,6.70
2023-04-14T02:49:43.364Z,6.60
2023-04-14T02:52:14.353Z,6.60
2023-04-14T02:54:44.114Z,6.60
2023-04-14T02:57:12.249Z,6.60
2023-04-14T02:59:42.579Z,6.60
2023-04-14T03:02:12.810Z,6.70
2023-04-14T03:04:42.011Z,6.70
2023-04-14T03:07:12.329Z,6.70
2023-04-14T03:09:40.921Z,6.70
2023-04-14T03:12:08.656Z,6.80
2023-04-14T03:14:38.023Z,6.70
2023-04-14T03:17:07.074Z,6.70
2023-04-14T03:19:36.743Z,6.70
2023-04-14T03:22:05.170Z,6.70
2023-04-14T03:24:35.418Z,6.70
2023-04-14T03:27:11.938Z,6.70
2023-04-14T03:29:45.842Z,6.70
2023-04-14T03:32:15.694Z,6.70
2023-04-14T03:34:46.632Z,6.60
2023-04-14T03:37:18.326Z,6.70
2023-04-14T03:39:51.260Z,6.60
2023-04-14T03:42:22.622Z,6.60
2023-04-14T03:44:54.342Z,6.60
2023-04-14T03:47:23.780Z,6.50
2023-04-14T03:49:57.313Z,6.50
2023-04-14T03:52:27.280Z,6.50
2023-04-14T03:54:59.243Z,6.40
2023-04-14T03:57:30.131Z,6.40
2023-04-14T03:59:59.231Z,6.50
2023-04-14T04:02:27.986Z,6.60
2023-04-14T04:04:56.897Z,6.60
2023-04-14T04:07:27.551Z,6.60
2023-04-14T04:09:57.329Z,6.70
2023-04-14T04:12:26.512Z,6.70
2023-04-14T04:14:53.988Z,6.70
2023-04-14T04:17:24.746Z,6.70
2023-04-14T04:19:54.244Z,6.70
2023-04-14T04:22:23.851Z,6.60
2023-04-14T04:24:51.786Z,6.70
2023-04-14T04:27:27.616Z,6.60
2023-04-14T04:29:56.235Z,6.70
2023-04-14T04:32:23.980Z,6.60
2023-04-14T04:34:53.377Z,6.60
2023-04-14T04:37:22.501Z,6.60
2023-04-14T04:39:50.014Z,6.70
2023-04-14T04:42:17.491Z,6.70
2023-04-14T04:44:44.958Z,6.70
2023-04-14T04:47:13.606Z,6.70
2023-04-14T04:49:41.170Z,6.70
2023-04-14T04:52:08.619Z,6.70
2023-04-14T04:54:36.339Z,6.70
2023-04-14T04:57:03.933Z,6.70
2023-04-14T04:59:31.443Z,6.80
2023-04-14T05:01:58.988Z,6.80
2023-04-14T05:04:26.548Z,6.80
2023-04-14T05:06:54.032Z,6.70
2023-04-14T05:09:21.480Z,6.70
2023-04-14T05:11:48.943Z,6.80
2023-04-14T05:14:16.492Z,6.70
2023-04-14T05:16:43.961Z,6.70
2023-04-14T05:19:11.524Z,6.90
2023-04-14T05:21:39.087Z,6.90
2023-04-14T05:24:09.421Z,6.80
2023-04-14T05:26:54.835Z,6.80
2023-04-14T05:29:24.406Z,6.90
2023-04-14T05:31:51.901Z,6.90
2023-04-14T05:34:19.446Z,6.90
2023-04-14T05:36:46.893Z,6.90
2023-04-14T05:39:14.658Z,6.90
2023-04-14T05:41:42.084Z,7.00
2023-04-14T05:44:09.568Z,7.00
2023-04-14T05:46:37.141Z,6.90
2023-04-14T05:49:05.124Z,6.90
2023-04-14T05:51:33.289Z,6.90
2023-04-14T05:54:01.215Z,6.90
2023-04-14T05:56:28.982Z,6.90
2023-04-14T05:58:56.475Z,7.00
2023-04-14T06:01:23.920Z,7.00
2023-04-14T06:03:51.587Z,7.00
2023-04-14T06:06:20.465Z,7.00
2023-04-14T06:08:48.000Z,6.90
2023-04-14T06:11:15.753Z,6.90
2023-04-14T06:13:43.187Z,6.90
2023-04-14T06:16:10.753Z,6.90
2023-04-14T06:18:38.222Z,6.90
2023-04-14T06:21:05.775Z,7.00
2023-04-14T06:23:33.444Z,6.90
2023-04-14T06:26:01.010Z,7.00
2023-04-14T06:28:28.486Z,7.00
2023-04-14T06:30:56.191Z,7.10
2023-04-14T06:33:24.188Z,7.00
2023-04-14T06:35:51.701Z,7.00
2023-04-14T06:38:19.859Z,7.10
2023-04-14T06:40:47.343Z,7.10
2023-04-14T06:43:15.229Z,7.20
2023-04-14T06:45:42.770Z,7.20
2023-04-14T06:48:11.691Z,7.30
2023-04-14T06:50:39.391Z,7.40
2023-04-14T06:53:07.438Z,7.70
2023-04-14T06:55:36.528Z,7.90
2023-04-14T06:58:04.102Z,8.00
2023-04-14T07:00:31.895Z,8.10
2023-04-14T07:02:59.534Z,8.20
2023-04-14T07:05:27.395Z,8.30
2023-04-14T07:07:54.844Z,8.40
2023-04-14T07:10:22.409Z,8.40
2023-04-14T07:12:49.876Z,8.50
2023-04-14T07:15:17.529Z,8.50
2023-04-14T07:17:45.070Z,8.50
2023-04-14T07:20:12.850Z,8.50
2023-04-14T07:22:41.034Z,8.50
2023-04-14T07:25:09.104Z,8.50
2023-04-14T07:27:36.692Z,8.40
2023-04-14T07:30:05.304Z,8.30
2023-04-14T07:32:33.293Z,8.30
2023-04-14T07:35:01.129Z,8.40
2023-04-14T07:37:29.497Z,8.40
2023-04-14T07:39:57.347Z,8.40
2023-04-14T07:42:24.971Z,8.50
2023-04-14T07:44:52.519Z,8.50
2023-04-14T07:47:20.023Z,8.70
2023-04-14T07:49:47.886Z,8.70
2023-04-14T07:52:15.692Z,8.80
2023-04-14T07:54:43.120Z,8.80
2023-04-14T07:57:11.053Z,8.70
2023-04-14T07:59:42.890Z,8.70
2023-04-14T08:02:11.006Z,8.80
2023-04-14T08:04:38.619Z,8.80
2023-04-14T08:07:06.189Z,8.80
2023-04-14T08:09:35.085Z,8.80
2023-04-14T08:12:03.058Z,8.80
2023-04-14T08:14:30.823Z,8.80
2023-04-14T08:16:58.437Z,8.80
2023-04-14T08:19:25.989Z,8.80
2023-04-14T08:21:53.502Z,8.90
2023-04-14T08:24:21.225Z,8.90
2023-04-14T08:26:48.706Z,9.00
2023-04-14T08:29:16.332Z,9.10
2023-04-14T08:31:44.073Z,9.10
2023-04-14T08:34:11.703Z,9.30
2023-04-14T08:36:40.068Z,9.40
2023-04-14T08:39:07.646Z,9.40
2023-04-14T08:41:35.676Z,9.50
2023-04-14T08:44:03.402Z,9.60
2023-04-14T08:46:32.145Z,9.70
2023-04-14T08:49:06.933Z,9.80
2023-04-14T08:51:44.752Z,9.80
2023-04-14T08:54:13.289Z,10.00
2023-04-14T08:56:42.830Z,10.00
2023-04-14T08:59:11.938Z,10.20
2023-04-14T09:01:40.383Z,10.20
2023-04-14T09:04:09.324Z,10.20
2023-04-14T09:06:37.518Z,10.00
2023-04-14T09:09:09.565Z,9.90
2023-04-14T09:11:37.973Z,9.90
2023-04-14T09:14:06.373Z,9.80
2023-04-14T09:16:34.111Z,9.70
2023-04-14T09:19:06.887Z,9.70
2023-04-14T09:21:53.908Z,9.80
2023-04-14T09:24:32.457Z,9.90
2023-04-14T09:27:05.593Z,9.90
2023-04-14T09:29:33.821Z,10.00
2023-04-14T09:32:01.475Z,10.10
2023-04-14T09:34:29.271Z,10.20
2023-04-14T09:37:04.981Z,10.30
2023-04-14T09:39:34.301Z,10.50
2023-04-14T09:42:03.920Z,10.70
2023-04-14T09:44:31.666Z,10.80
2023-04-14T09:47:05.866Z,10.80
2023-04-14T09:49:34.760Z,10.90
2023-04-14T09:52:09.702Z,10.90
2023-04-14T09:54:40.389Z,11.00
2023-04-14T09:57:08.742Z,11.10
2023-04-14T09:59:40.588Z,11.20
2023-04-14T10:02:10.532Z,11.60
2023-04-14T10:04:38.630Z,11.70
2023-04-14T10:07:12.410Z,11.80
2023-04-14T10:09:41.002Z,11.90
2023-04-14T10:12:14.736Z,12.10
2023-04-14T10:14:44.084Z,12.40
2023-04-14T10:17:12.024Z,12.70
2023-04-14T10:19:39.984Z,12.90
2023-04-14T10:22:10.600Z,13.10
2023-04-14T10:24:38.299Z,13.30
2023-04-14T10:27:06.742Z,13.10
2023-04-14T10:29:34.316Z,13.10
2023-04-14T10:32:13.957Z,13.10
2023-04-14T10:35:06.628Z,13.10
2023-04-14T10:37:35.293Z,13.30
2023-04-14T10:40:07.386Z,13.70
2023-04-14T10:43:12.692Z,13.60
2023-04-14T10:45:59.525Z,13.30
2023-04-14T10:48:39.073Z,13.30
2023-04-14T10:51:09.962Z,13.10
2023-04-14T10:53:45.361Z,12.90
2023-04-14T10:56:13.746Z,13.10
2023-04-14T10:58:41.236Z,13.10
2023-04-14T11:01:32.584Z,12.90
2023-04-14T11:04:21.419Z,12.90
2023-04-14T11:06:53.654Z,13.00
2023-04-14T11:09:25.581Z,12.90
2023-04-14T11:47:06.684Z,13.60
2023-04-14T11:49:37.880Z,13.70
2023-04-14T11:52:08.938Z,14.00
2023-04-14T11:54:45.950Z,14.20
2023-04-14T11:58:11.156Z,14.30
2023-04-14T12:15:59.590Z,16.10
2023-04-14T12:18:29.026Z,15.70
2023-04-14T12:21:39.726Z,15.40
2023-04-14T12:24:07.298Z,15.10
2023-04-14T12:26:37.412Z,14.80
2023-04-14T12:29:05.192Z,14.70
2023-04-14T12:31:32.857Z,15.00
2023-04-14T12:34:02.213Z,15.40
2023-04-14T12:36:45.432Z,15.20
2023-04-14T12:39:16.988Z,15.20
2023-04-14T12:41:45.121Z,15.20
2023-04-14T12:44:17.470Z,15.00
2023-04-14T12:46:51.891Z,14.80
2023-04-14T12:49:38.915Z,14.60
2023-04-14T12:52:08.517Z,14.70
2023-04-14T12:54:52.536Z,14.70
2023-04-14T12:57:22.387Z,14.50
2023-04-14T12:59:50.640Z,14.60
2023-04-14T13:02:18.860Z,14.60
2023-04-14T13:04:46.580Z,14.60
2023-04-14T13:07:14.080Z,14.40
2023-04-14T13:09:43.792Z,14.30
2023-04-14T13:12:11.841Z,14.20
2023-04-14T13:14:39.587Z,14.20
2023-04-14T13:17:07.274Z,14.10
2023-04-14T13:19:34.908Z,14.10
2023-04-14T13:22:02.442Z,14.10
2023-04-14T13:24:30.047Z,14.10
2023-04-14T13:26:57.722Z,14.00
2023-04-14T13:29:25.152Z,13.90
2023-04-14T13:31:52.659Z,14.00
2023-04-14T13:34:20.212Z,14.00
2023-04-14T13:36:48.550Z,14.00
2023-04-14T13:39:16.126Z,14.00
2023-04-14T13:41:43.997Z,13.90
2023-04-14T13:44:11.668Z,13.80
2023-04-14T13:46:41.394Z,13.70
2023-04-14T13:49:09.206Z,13.80
2023-04-14T13:51:36.716Z,13.80
2023-04-14T13:54:04.392Z,13.70
2023-04-14T13:56:31.968Z,13.80
2023-04-14T13:58:59.654Z,13.70
2023-04-14T14:01:27.763Z,13.50
2023-04-14T14:03:55.784Z,13.40
2023-04-14T14:06:23.431Z,13.10
2023-04-14T14:09:07.754Z,12.90
2023-04-14T14:11:35.856Z,12.90
2023-04-14T14:14:03.832Z,12.90
2023-04-14T14:19:05.442Z,13.00
2023-04-14T14:21:33.020Z,13.10
2023-04-14T14:24:01.370Z,13.20
2023-04-14T14:26:29.015Z,13.30
2023-04-14T14:28:56.722Z,13.30
2023-04-14T14:31:24.259Z,13.20
2023-04-14T14:33:51.736Z,13.20
2023-04-14T14:36:19.296Z,13.20
2023-04-14T14:38:46.732Z,13.30
2023-04-14T14:41:14.214Z,13.20
2023-04-14T14:43:41.778Z,13.10
2023-04-14T14:46:09.224Z,12.90
2023-04-14T14:48:36.966Z,12.90
2023-04-14T14:51:04.930Z,12.90
2023-04-14T14:53:32.600Z,12.80
2023-04-14T14:56:00.639Z,12.80
2023-04-14T14:58:28.230Z,12.90
2023-04-14T15:00:55.721Z,13.00
2023-04-14T15:03:23.537Z,13.10
2023-04-14T15:05:52.673Z,13.10
2023-04-14T15:08:20.771Z,13.20
2023-04-14T15:10:48.254Z,13.30
2023-04-14T15:13:15.797Z,13.20
2023-04-14T15:15:43.340Z,13.20
2023-04-14T15:18:11.519Z,13.20
2023-04-14T15:20:39.545Z,13.20
2023-04-14T15:23:07.382Z,13.20
2023-04-14T15:25:34.843Z,13.20
2023-04-14T15:28:02.316Z,13.20
2023-04-14T15:30:29.922Z,13.20
2023-04-14T15:32:58.625Z,13.20
2023-04-14T15:35:26.738Z,13.10
2023-04-14T15:37:54.194Z,13.10
2023-04-14T15:40:21.866Z,13.00
2023-04-14T15:42:49.341Z,13.00
2023-04-14T15:45:16.979Z,12.90
2023-04-14T15:47:46.262Z,12.90
2023-04-14T15:50:18.516Z,12.90
2023-04-14T15:52:46.546Z,12.80
2023-04-14T15:55:14.002Z,12.80
2023-04-14T15:57:41.521Z,12.80
2023-04-14T16:00:09.935Z,12.70
2023-04-14T16:02:38.131Z,12.60
2023-04-14T16:05:06.445Z,12.60
2023-04-14T16:07:34.000Z,12.60
2023-04-14T16:10:01.861Z,12.50
2023-04-14T16:12:30.384Z,12.50
2023-04-14T16:14:57.907Z,12.50
2023-04-14T16:17:25.739Z,12.50
2023-04-14T16:19:53.291Z,12.50
2023-04-14T16:22:20.763Z,12.50
2023-04-14T16:24:48.282Z,12.50
2023-04-14T16:27:16.359Z,12.50
2023-04-14T16:29:43.896Z,12.60
2023-04-14T16:32:11.494Z,12.60
2023-04-14T16:34:39.305Z,12.60
2023-04-14T16:37:06.763Z,12.50
2023-04-14T16:39:34.347Z,12.40
2023-04-14T16:42:03.281Z,12.20
2023-04-14T16:44:30.852Z,12.00
2023-04-14T16:46:58.470Z,12.00
2023-04-14T16:49:26.343Z,12.00
2023-04-14T16:51:57.330Z,12.00
2023-04-14T16:54:24.830Z,12.00
2023-04-14T16:56:53.161Z,12.00
2023-04-14T16:59:20.606Z,12.00
2023-04-14T17:01:48.296Z,11.90
2023-04-14T17:04:16.280Z,11.80
2023-04-14T17:06:43.990Z,11.70
2023-04-14T17:09:12.185Z,11.60
2023-04-14T17:11:39.649Z,11.40
2023-04-14T17:14:08.303Z,11.40
2023-04-14T17:16:36.452Z,11.30
2023-04-14T17:19:04.595Z,11.20
2023-04-14T17:21:32.062Z,11.00
2023-04-14T17:23:59.594Z,10.90
2023-04-14T17:26:27.276Z,10.80
2023-04-14T17:28:54.708Z,10.70
2023-04-14T17:31:23.011Z,10.70
2023-04-14T17:33:51.259Z,10.70
2023-04-14T17:36:18.781Z,10.60
2023-04-14T17:38:46.312Z,10.60
2023-04-14T17:41:14.159Z,10.60
2023-04-14T17:43:41.988Z,10.60
2023-04-14T17:46:09.564Z,10.60
2023-04-14T17:48:37.111Z,10.50
2023-04-14T17:51:05.387Z,10.40
2023-04-14T17:53:32.984Z,10.50
2023-04-14T17:56:00.779Z,10.60
2023-04-14T17:58:28.944Z,10.50
2023-04-14T18:00:57.561Z,10.40
2023-04-14T18:03:25.279Z,10.30
2023-04-14T18:05:54.470Z,10.30
2023-04-14T18:08:22.130Z,10.30
2023-04-14T18:10:49.561Z,10.30
2023-04-14T18:13:18.141Z,10.30
2023-04-14T18:15:45.856Z,10.20
2023-04-14T18:18:13.341Z,10.30
2023-04-14T18:20:45.783Z,10.30
2023-04-14T18:23:13.954Z,10.20
2023-04-14T18:28:12.370Z,10.20
2023-04-14T18:30:39.838Z,10.30
2023-04-14T18:33:07.597Z,10.30
2023-04-14T18:35:35.502Z,10.30
2023-04-14T18:38:03.003Z,10.30
2023-04-14T18:40:30.585Z,10.30
2023-04-14T18:42:58.100Z,10.30
2023-04-14T18:45:25.613Z,10.30
2023-04-14T18:47:53.180Z,10.40
2023-04-14T18:50:21.688Z,10.40
2023-04-14T18:52:49.517Z,10.40
2023-04-14T18:55:17.176Z,10.40
2023-04-14T18:57:46.162Z,10.40
2023-04-14T19:00:14.080Z,10.30
2023-04-14T19:02:42.906Z,10.30
2023-04-14T19:05:12.141Z,10.20
2023-04-14T19:07:39.624Z,10.30
2023-04-14T19:10:08.092Z,10.10
2023-04-14T19:12:37.960Z,10.00
2023-04-14T19:15:06.791Z,9.80
2023-04-14T19:17:34.674Z,9.70
2023-04-14T19:20:02.287Z,9.60
2023-04-14T19:22:29.759Z,9.50
2023-04-14T19:24:57.308Z,9.50
2023-04-14T19:27:24.975Z,9.40
2023-04-14T19:29:52.651Z,9.40
2023-04-14T19:32:20.170Z,9.40
2023-04-14T19:34:47.716Z,9.40
2023-04-14T19:37:15.258Z,9.40
2023-04-14T19:39:42.711Z,9.40
2023-04-14T19:42:10.153Z,9.40
2023-04-14T19:44:37.695Z,9.30
2023-04-14T19:47:05.254Z,9.30
2023-04-14T19:49:32.703Z,9.30
2023-04-14T19:52:00.200Z,9.30
2023-04-14T19:54:28.127Z,9.40
2023-04-14T19:56:55.995Z,9.50
2023-04-14T19:59:23.505Z,9.40
2023-04-14T20:01:51.827Z,9.30
2023-04-14T20:04:19.491Z,9.30
2023-04-14T20:06:46.963Z,9.50
2023-04-14T20:09:14.603Z,9.50
2023-04-14T20:11:42.105Z,9.40
2023-04-14T20:14:09.538Z,9.30
2023-04-14T20:16:37.111Z,9.40
2023-04-14T20:19:05.017Z,9.50
2023-04-14T20:21:32.997Z,9.50
2023-04-14T20:24:01.242Z,9.40
2023-04-14T20:26:28.823Z,9.30
2023-04-14T20:28:56.300Z,9.30
2023-04-14T20:31:24.797Z,9.40
2023-04-14T20:33:52.594Z,9.50
2023-04-14T20:36:22.507Z,9.50
2023-04-14T20:38:50.098Z,9.50
2023-04-14T20:41:18.288Z,9.50
2023-04-14T20:43:45.953Z,9.50
2023-04-14T20:46:13.551Z,9.40
2023-04-14T20:48:42.318Z,9.50
2023-04-14T20:51:10.626Z,9.50
2023-04-14T20:53:38.300Z,9.50
2023-04-14T20:56:06.547Z,9.40
2023-04-14T20:58:34.079Z,9.50
2023-04-14T21:01:02.948Z,9.60
2023-04-14T21:03:33.519Z,9.70
2023-04-14T21:06:02.050Z,9.80
2023-04-14T21:08:29.978Z,9.70
2023-04-14T21:11:15.216Z,9.80
2023-04-14T21:15:31.396Z,9.70
2023-04-14T21:16:35.071Z,9.70
2023-04-14T21:19:03.901Z,9.70
2023-04-14T21:21:33.352Z,9.60
2023-04-14T21:24:01.788Z,9.60
2023-04-14T21:26:29.590Z,9.60
2023-04-14T21:28:57.182Z,9.60
2023-04-14T21:31:24.930Z,9.50
2023-04-14T21:33:52.810Z,9.50
2023-04-14T21:36:20.697Z,9.50
2023-04-14T21:38:48.949Z,9.60
2023-04-14T21:41:16.591Z,9.60
2023-04-14T21:43:44.179Z,9.60
2023-04-14T21:46:12.467Z,9.60
2023-04-14T21:48:40.348Z,9.60
2023-04-14T21:51:07.880Z,9.60
2023-04-14T21:53:36.728Z,9.60
2023-04-14T21:56:09.807Z,9.50
2023-04-14T21:58:39.761Z,9.50
2023-04-14T22:01:08.176Z,9.60
2023-04-14T22:03:37.800Z,9.40
2023-04-14T22:06:05.890Z,9.40
2023-04-14T22:08:33.487Z,9.30
2023-04-14T22:11:01.014Z,9.20
2023-04-14T22:13:28.783Z,9.20
2023-04-14T22:15:56.792Z,9.20
2023-04-14T22:18:24.621Z,9.30
2023-04-14T22:20:52.219Z,9.20
2023-04-14T22:23:19.780Z,9.40
2023-04-14T22:25:48.079Z,9.40
2023-04-14T22:28:15.628Z,9.40
2023-04-14T22:30:43.364Z,9.40
2023-04-14T22:33:11.121Z,9.50
2023-04-14T22:35:39.109Z,9.60
2023-04-14T22:38:07.179Z,9.70
2023-04-14T22:40:34.753Z,9.70
2023-04-14T22:43:08.730Z,9.70
2023-04-14T22:45:41.599Z,9.70
2023-04-14T22:48:11.286Z,9.70
2023-04-14T22:50:39.557Z,9.70
2023-04-14T22:53:07.130Z,9.70
2023-04-14T22:55:34.618Z,9.70
2023-04-14T22:58:02.728Z,9.80
2023-04-14T23:00:30.350Z,9.90
2023-04-14T23:02:59.553Z,9.90
2023-04-14T23:05:27.316Z,10.00
2023-04-14T23:07:54.823Z,10.10
2023-04-14T23:10:22.403Z,10.20
2023-04-14T23:12:49.830Z,10.20
2023-04-14T23:15:18.958Z,10.30
2023-04-14T23:17:46.477Z,10.30
2023-04-14T23:20:14.097Z,10.30
2023-04-14T23:22:41.585Z,10.30
2023-04-14T23:25:09.526Z,10.30
2023-04-14T23:27:37.013Z,10.30
2023-04-14T23:30:05.646Z,10.30
2023-04-14T23:32:33.422Z,10.30
2023-04-14T23:35:01.019Z,10.30
2023-04-14T23:37:28.912Z,10.30
2023-04-14T23:39:56.347Z,10.20
2023-04-14T23:42:23.866Z,10.20
2023-04-14T23:44:51.554Z,10.20
2023-04-14T23:47:19.343Z,10.20
2023-04-14T23:49:46.897Z,10.10
2023-04-14T23:52:14.364Z,10.10
2023-04-14T23:54:41.974Z,10.10
2023-04-14T23:57:09.863Z,10.10
2023-04-14T23:59:37.430Z,10.10
